createdAt,value
2024-01-28T00:01:59.778Z,5.90
2024-01-28T00:05:01.944Z,4.53
2024-01-28T00:08:07.711Z,6.20
2024-01-28T00:11:09.932Z,6.70
2024-01-28T00:14:12.214Z,5.82
2024-01-28T00:17:14.416Z,6.88
2024-01-28T00:20:16.588Z,9.40
2024-01-28T00:23:18.961Z,5.18
2024-01-28T00:26:21.542Z,7.70
2024-01-28T00:29:30.208Z,4.55
2024-01-28T00:32:32.835Z,3.75
2024-01-28T00:35:35.319Z,5.87
2024-01-28T00:38:38.249Z,4.50
2024-01-28T00:41:40.860Z,5.57
2024-01-28T00:44:43.143Z,6.80
2024-01-28T00:47:45.896Z,4.10
2024-01-28T00:50:48.120Z,5.47
2024-01-28T00:53:50.259Z,4.25
2024-01-28T00:56:57.397Z,5.73
2024-01-28T00:59:59.622Z,5.13
2024-01-28T01:03:02.428Z,4.30
2024-01-28T01:06:07.229Z,6.40
2024-01-28T01:09:09.693Z,6.20
2024-01-28T01:12:11.949Z,6.18
2024-01-28T01:15:14.282Z,4.97
2024-01-28T01:18:16.878Z,5.65
2024-01-28T01:21:19.200Z,5.25
2024-01-28T01:24:21.607Z,6.53
2024-01-28T01:27:23.878Z,5.40
2024-01-28T01:30:26.176Z,5.13
2024-01-28T01:33:28.658Z,6.35
2024-01-28T01:36:31.529Z,6.07
2024-01-28T01:39:33.984Z,4.38
2024-01-28T01:42:36.399Z,7.38
2024-01-28T01:45:38.725Z,3.17
2024-01-28T01:48:41.132Z,5.50
2024-01-28T01:51:45.548Z,3.88
2024-01-28T01:54:48.679Z,5.70
2024-01-28T01:57:51.789Z,3.60
2024-01-28T02:00:54.112Z,2.35
2024-01-28T02:03:58.895Z,5.03
2024-01-28T02:07:01.389Z,2.37
2024-01-28T02:10:07.352Z,6.28
2024-01-28T02:13:09.512Z,5.82
2024-01-28T02:16:11.704Z,5.35
2024-01-28T02:19:13.890Z,5.32
2024-01-28T02:22:16.115Z,5.20
2024-01-28T02:25:18.338Z,5.80
2024-01-28T02:28:22.545Z,4.50
2024-01-28T02:31:24.825Z,5.75
2024-01-28T02:34:27.232Z,8.75
2024-01-28T02:37:29.624Z,5.53
2024-01-28T02:40:32.938Z,5.75
2024-01-28T02:43:35.906Z,7.47
2024-01-28T02:46:38.156Z,5.90
2024-01-28T02:49:41.110Z,5.78
2024-01-28T02:52:43.397Z,6.15
2024-01-28T02:55:45.533Z,3.72
2024-01-28T02:58:47.785Z,5.73
2024-01-28T03:01:50.554Z,5.47
2024-01-28T03:04:52.848Z,3.80
2024-01-28T03:07:55.109Z,3.00
2024-01-28T03:10:57.257Z,3.85
2024-01-28T03:13:59.390Z,5.93
2024-01-28T03:17:02.203Z,4.80
2024-01-28T03:20:04.997Z,6.30
2024-01-28T03:23:07.155Z,7.68
2024-01-28T03:26:12.683Z,7.05
2024-01-28T03:29:14.858Z,5.77
2024-01-28T03:32:17.180Z,7.35
2024-01-28T03:35:19.358Z,4.10
2024-01-28T03:38:21.603Z,6.60
2024-01-28T03:41:23.766Z,6.82
2024-01-28T03:44:25.991Z,6.70
2024-01-28T03:47:28.204Z,7.22
2024-01-28T03:50:30.481Z,5.43
2024-01-28T03:53:33.012Z,6.47
2024-01-28T03:56:35.749Z,5.45
2024-01-28T03:59:41.388Z,4.50
2024-01-28T04:02:43.647Z,5.35
2024-01-28T04:05:45.911Z,3.30
2024-01-28T04:08:48.147Z,3.83
2024-01-28T04:11:50.410Z,4.03
2024-01-28T04:14:52.648Z,5.75
2024-01-28T04:17:54.887Z,4.75
2024-01-28T04:20:57.180Z,6.20
2024-01-28T04:23:59.464Z,4.90
2024-01-28T04:27:01.616Z,4.20
2024-01-28T04:30:05.397Z,6.40
2024-01-28T04:33:07.825Z,5.13
2024-01-28T04:36:10.121Z,4.70
2024-01-28T04:39:12.444Z,4.53
2024-01-28T04:42:14.697Z,5.10
2024-01-28T04:45:17.444Z,6.35
2024-01-28T04:48:20.424Z,4.80
2024-01-28T04:51:22.849Z,4.43
2024-01-28T04:54:25.122Z,5.32
2024-01-28T04:57:28.244Z,5.93
2024-01-28T05:00:30.556Z,5.20
2024-01-28T05:03:32.987Z,3.28
2024-01-28T05:06:38.375Z,4.72
2024-01-28T05:09:40.662Z,4.30
2024-01-28T05:12:42.843Z,4.20
2024-01-28T05:15:45.225Z,3.60
2024-01-28T05:18:47.631Z,4.25
2024-01-28T05:21:51.220Z,4.32
2024-01-28T05:24:55.150Z,4.80
2024-01-28T05:27:57.327Z,5.78
2024-01-28T05:30:59.532Z,7.07
2024-01-28T05:34:04.827Z,4.53
2024-01-28T05:37:07.116Z,5.85
2024-01-28T05:40:12.602Z,5.57
2024-01-28T05:43:14.775Z,7.30
2024-01-28T05:46:16.978Z,4.32
2024-01-28T05:49:19.170Z,5.00
2024-01-28T05:52:21.397Z,5.03
2024-01-28T05:55:23.591Z,5.32
2024-01-28T05:58:26.530Z,4.07
2024-01-28T06:01:28.786Z,6.10
2024-01-28T06:04:31.326Z,6.43
2024-01-28T06:07:33.586Z,4.05
2024-01-28T06:10:36.129Z,4.87
2024-01-28T06:13:38.388Z,7.32
2024-01-28T06:16:40.621Z,9.30
2024-01-28T06:19:42.924Z,4.60
2024-01-28T06:22:45.133Z,5.38
2024-01-28T06:25:47.378Z,5.60
2024-01-28T06:28:49.725Z,7.25
2024-01-28T06:31:52.010Z,4.83
2024-01-28T06:34:54.378Z,6.82
2024-01-28T06:37:56.810Z,6.68
2024-01-28T06:40:59.654Z,4.97
2024-01-28T06:44:04.545Z,5.15
2024-01-28T06:47:07.638Z,6.28
2024-01-28T06:50:10.243Z,6.57
2024-01-28T06:53:12.528Z,8.02
2024-01-28T06:56:14.920Z,5.80
2024-01-28T06:59:19.682Z,7.60
2024-01-28T07:02:25.449Z,6.37
2024-01-28T07:05:27.775Z,4.93
2024-01-28T07:08:30.135Z,6.50
2024-01-28T07:11:32.451Z,6.37
2024-01-28T07:14:34.564Z,7.28
2024-01-28T07:17:36.753Z,4.05
2024-01-28T07:20:38.938Z,6.55
2024-01-28T07:23:41.588Z,4.38
2024-01-28T07:26:44.466Z,6.82
2024-01-28T07:29:46.713Z,7.13
2024-01-28T07:32:49.097Z,4.87
2024-01-28T07:35:51.285Z,7.65
2024-01-28T07:38:53.494Z,5.38
2024-01-28T07:41:55.586Z,4.60
2024-01-28T07:44:57.827Z,6.53
2024-01-28T07:48:00.167Z,6.45
2024-01-28T07:51:02.586Z,5.07
2024-01-28T07:54:04.811Z,5.40
2024-01-28T07:57:07.558Z,6.10
2024-01-28T08:00:11.450Z,5.78
2024-01-28T08:03:16.361Z,5.00
2024-01-28T08:06:18.568Z,4.63
2024-01-28T08:09:20.901Z,5.40
2024-01-28T08:12:23.181Z,6.37
2024-01-28T08:15:25.375Z,5.05
2024-01-28T08:18:27.667Z,7.07
2024-01-28T08:21:29.947Z,8.48
2024-01-28T08:24:32.549Z,5.38
2024-01-28T08:27:34.815Z,6.22
2024-01-28T08:30:37.089Z,5.43
2024-01-28T08:33:39.332Z,5.30
2024-01-28T08:36:41.650Z,5.60
2024-01-28T08:39:43.990Z,5.93
2024-01-28T08:42:46.185Z,6.10
2024-01-28T08:45:48.500Z,4.88
2024-01-28T08:48:50.817Z,5.72
2024-01-28T08:51:53.969Z,6.68
2024-01-28T08:54:56.253Z,7.63
2024-01-28T08:57:58.638Z,5.65
2024-01-28T09:01:00.955Z,5.15
2024-01-28T09:04:03.293Z,4.30
2024-01-28T09:07:05.623Z,5.70
2024-01-28T09:10:08.346Z,6.65
2024-01-28T09:13:10.586Z,5.57
2024-01-28T09:16:12.831Z,4.63
2024-01-28T09:19:15.049Z,6.47
2024-01-28T09:22:17.296Z,5.60
2024-01-28T09:25:19.470Z,4.25
2024-01-28T09:28:21.600Z,7.25
2024-01-28T09:31:23.896Z,5.40
2024-01-28T09:34:26.538Z,6.53
2024-01-28T09:37:28.860Z,5.13
2024-01-28T09:40:31.072Z,5.55
2024-01-28T09:43:33.266Z,7.90
2024-01-28T09:46:35.700Z,5.15
2024-01-28T09:49:41.141Z,9.10
2024-01-28T09:52:43.475Z,8.18
2024-01-28T09:55:45.674Z,5.60
2024-01-28T09:58:48.511Z,5.93
2024-01-28T10:01:53.681Z,5.05
2024-01-28T10:04:57.482Z,5.87
2024-01-28T10:08:05.445Z,4.20
2024-01-28T10:11:08.066Z,5.88
2024-01-28T10:14:11.821Z,6.13
2024-01-28T10:17:14.773Z,5.72
2024-01-28T10:20:18.003Z,6.95
2024-01-28T10:23:20.236Z,6.07
2024-01-28T10:26:22.478Z,5.75
2024-01-28T10:29:26.854Z,5.32
2024-01-28T10:32:29.116Z,4.28
2024-01-28T10:35:31.383Z,6.47
2024-01-28T10:38:38.877Z,4.68
2024-01-28T10:41:44.314Z,3.90
2024-01-28T10:44:49.325Z,5.60
2024-01-28T10:47:55.886Z,5.30
2024-01-28T10:50:59.331Z,4.68
2024-01-28T10:54:05.579Z,5.47
2024-01-28T10:57:13.866Z,6.32
2024-01-28T11:00:21.923Z,5.82
2024-01-28T11:03:24.504Z,4.68
2024-01-28T11:06:33.443Z,5.27
2024-01-28T11:09:36.310Z,6.50
2024-01-28T11:12:38.632Z,6.68
2024-01-28T11:15:43.354Z,7.77
2024-01-28T11:19:07.235Z,5.28
2024-01-28T11:22:17.137Z,3.38
2024-01-28T11:25:25.456Z,3.92
2024-01-28T11:28:28.674Z,4.40
2024-01-28T11:31:37.365Z,4.65
2024-01-28T11:34:43.475Z,4.72
2024-01-28T11:37:58.779Z,4.73
2024-01-28T11:41:01.372Z,5.70
2024-01-28T11:44:04.265Z,4.35
2024-01-28T11:47:08.126Z,4.53
2024-01-28T11:50:12.828Z,4.38
2024-01-28T11:53:16.365Z,5.95
2024-01-28T11:56:18.567Z,5.85
2024-01-28T11:59:20.739Z,3.35
2024-01-28T12:02:23.502Z,3.67
2024-01-28T12:05:25.913Z,3.58
2024-01-28T12:08:28.854Z,4.80
2024-01-28T12:11:31.737Z,2.67
2024-01-28T12:14:34.289Z,4.50
2024-01-28T12:17:40.380Z,3.03
2024-01-28T12:20:42.600Z,5.47
2024-01-28T12:23:46.832Z,4.85
2024-01-28T12:26:49.022Z,3.70
2024-01-28T12:29:51.209Z,2.13
2024-01-28T12:32:53.684Z,4.05
2024-01-28T12:35:55.907Z,3.72
2024-01-28T12:38:58.150Z,3.77
2024-01-28T12:42:00.415Z,3.45
2024-01-28T12:45:02.712Z,2.38
2024-01-28T12:48:05.679Z,3.43
2024-01-28T12:51:08.355Z,2.38
2024-01-28T12:54:10.738Z,2.35
2024-01-28T12:57:14.614Z,3.35
2024-01-28T13:00:18.336Z,5.18
2024-01-28T13:03:21.486Z,3.92
2024-01-28T13:06:27.040Z,4.07
2024-01-28T13:09:30.072Z,3.20
2024-01-28T13:12:38.211Z,5.20
2024-01-28T13:15:40.478Z,4.50
2024-01-28T13:18:44.607Z,5.17
2024-01-28T13:21:47.249Z,2.78
2024-01-28T13:24:53.685Z,4.75
2024-01-28T13:27:56.112Z,4.57
2024-01-28T13:30:59.486Z,4.68
2024-01-28T13:34:02.001Z,4.40
2024-01-28T13:37:07.490Z,3.85
2024-01-28T13:40:10.303Z,3.47
2024-01-28T13:43:12.535Z,4.40
2024-01-28T13:46:15.066Z,3.78
2024-01-28T13:49:17.389Z,3.30
2024-01-28T13:52:19.613Z,3.50
2024-01-28T13:55:21.831Z,4.47
2024-01-28T13:58:23.974Z,4.28
2024-01-28T14:01:29.692Z,3.60
2024-01-28T14:04:32.225Z,4.57
2024-01-28T14:07:34.495Z,4.75
2024-01-28T14:10:36.712Z,3.97
2024-01-28T14:13:38.958Z,4.95
2024-01-28T14:16:41.151Z,5.32
2024-01-28T14:19:43.489Z,3.50
2024-01-28T14:22:45.709Z,4.88
2024-01-28T14:25:49.316Z,4.43
2024-01-28T14:28:53.915Z,5.13
2024-01-28T14:31:56.053Z,3.28
2024-01-28T14:34:58.357Z,3.20
2024-01-28T14:38:00.642Z,3.92
2024-01-28T14:41:02.868Z,4.53
2024-01-28T14:44:05.834Z,3.20
2024-01-28T14:47:08.642Z,2.88
2024-01-28T14:50:11.123Z,5.60
2024-01-28T14:53:13.335Z,3.17
2024-01-28T14:56:15.590Z,4.15
2024-01-28T14:59:17.774Z,5.20
2024-01-28T15:02:20.830Z,3.95
2024-01-28T15:05:23.175Z,3.33
2024-01-28T15:08:25.350Z,5.18
2024-01-28T15:11:27.529Z,4.63
2024-01-28T15:14:29.777Z,3.50
2024-01-28T15:17:31.983Z,4.88
2024-01-28T15:20:34.159Z,3.03
2024-01-28T15:23:39.029Z,5.30
2024-01-28T15:26:41.555Z,4.97
2024-01-28T15:29:46.612Z,4.63
2024-01-28T15:32:48.987Z,4.18
2024-01-28T15:35:53.670Z,4.85
2024-01-28T15:38:55.791Z,4.85
2024-01-28T15:41:58.462Z,5.63
2024-01-28T15:45:00.805Z,5.15
2024-01-28T15:48:03.484Z,5.25
2024-01-28T15:51:05.886Z,4.07
2024-01-28T15:54:10.228Z,5.85
2024-01-28T15:57:12.632Z,5.57
2024-01-28T16:00:15.310Z,5.28
2024-01-28T16:03:17.572Z,6.93
2024-01-28T16:06:19.900Z,5.18
2024-01-28T16:09:22.270Z,6.22
2024-01-28T16:12:25.500Z,3.67
2024-01-28T16:15:28.295Z,6.68
2024-01-28T16:18:30.802Z,5.03
2024-01-28T16:21:33.134Z,4.17
2024-01-28T16:24:35.438Z,4.70
2024-01-28T16:27:37.885Z,6.82
2024-01-28T16:30:40.398Z,4.75
2024-01-28T16:33:42.593Z,6.60
2024-01-28T16:36:45.003Z,5.95
2024-01-28T16:39:49.376Z,4.75
2024-01-28T16:42:51.817Z,5.27
2024-01-28T16:45:54.072Z,9.10
2024-01-28T16:48:56.428Z,10.05
2024-01-28T16:51:59.133Z,8.73
2024-01-28T16:55:01.407Z,13.68
2024-01-28T16:58:05.158Z,22.08
2024-01-28T17:01:10.194Z,13.25
2024-01-28T17:04:12.552Z,15.10
2024-01-28T17:07:14.861Z,12.85
2024-01-28T17:10:17.299Z,10.63
2024-01-28T17:13:19.483Z,9.37
2024-01-28T17:16:21.916Z,9.00
2024-01-28T17:19:24.101Z,9.40
2024-01-28T17:22:26.398Z,12.03
2024-01-28T17:25:29.570Z,13.95
2024-01-28T17:28:31.796Z,12.15
2024-01-28T17:31:35.755Z,15.73
2024-01-28T17:34:38.851Z,14.95
2024-01-28T17:37:42.747Z,52.25
2024-01-28T17:40:45.376Z,46.55
2024-01-28T17:43:50.700Z,37.57
2024-01-28T17:46:53.711Z,35.67
2024-01-28T17:49:56.035Z,30.00
2024-01-28T17:53:01.312Z,34.50
2024-01-28T17:56:03.674Z,32.50
2024-01-28T17:59:05.871Z,34.22
2024-01-28T18:02:08.119Z,29.00
2024-01-28T18:05:10.461Z,32.45
2024-01-28T18:08:12.638Z,26.80
2024-01-28T18:11:16.701Z,26.75
2024-01-28T18:14:18.886Z,27.57
2024-01-28T18:17:21.216Z,28.27
2024-01-28T18:20:24.744Z,26.40
2024-01-28T18:23:26.992Z,23.27
2024-01-28T18:26:29.856Z,25.60
2024-01-28T18:29:32.852Z,28.70
2024-01-28T18:32:35.126Z,32.28
2024-01-28T18:35:37.349Z,30.48
2024-01-28T18:38:40.013Z,30.50
2024-01-28T18:41:42.189Z,39.38
2024-01-28T18:44:46.261Z,38.20
2024-01-28T18:47:48.556Z,45.60
2024-01-28T18:50:52.124Z,41.58
2024-01-28T18:53:54.817Z,41.30
2024-01-28T18:56:57.015Z,47.63
2024-01-28T18:59:59.144Z,37.83
2024-01-28T19:03:07.043Z,42.17
2024-01-28T19:06:10.575Z,36.55
2024-01-28T19:09:14.115Z,37.38
2024-01-28T19:12:16.681Z,33.80
2024-01-28T19:15:19.012Z,39.00
2024-01-28T19:18:23.644Z,36.75
2024-01-28T19:21:25.944Z,38.08
2024-01-28T19:24:28.253Z,35.67
2024-01-28T19:27:30.568Z,35.08
2024-01-28T19:30:32.811Z,31.80
2024-01-28T19:33:35.367Z,33.40
2024-01-28T19:36:37.764Z,34.47
2024-01-28T19:39:41.119Z,32.33
2024-01-28T19:42:43.434Z,37.03
2024-01-28T19:45:48.007Z,34.33
2024-01-28T19:48:50.352Z,35.00
2024-01-28T19:51:52.648Z,35.53
2024-01-28T19:54:55.087Z,34.43
2024-01-28T19:57:57.441Z,32.35
2024-01-28T20:00:59.765Z,34.22
2024-01-28T20:04:02.203Z,39.38
2024-01-28T20:07:04.613Z,39.35
2024-01-28T20:10:08.439Z,38.95
2024-01-28T20:13:10.669Z,39.15
2024-01-28T20:16:12.908Z,37.53
2024-01-28T20:19:18.534Z,43.53
2024-01-28T20:22:20.765Z,38.83
2024-01-28T20:25:22.946Z,36.20
2024-01-28T20:28:25.234Z,37.10
2024-01-28T20:31:27.730Z,40.20
2024-01-28T20:34:29.960Z,38.42
2024-01-28T20:37:32.250Z,37.13
2024-01-28T20:40:34.811Z,37.38
2024-01-28T20:43:37.060Z,37.42
2024-01-28T20:46:41.825Z,34.90
2024-01-28T20:49:44.519Z,33.92
2024-01-28T20:52:46.726Z,36.28
2024-01-28T20:55:49.344Z,37.93
2024-01-28T20:58:51.642Z,33.55
2024-01-28T21:01:54.113Z,35.35
2024-01-28T21:04:56.355Z,39.17
2024-01-28T21:07:58.925Z,38.05
2024-01-28T21:11:08.450Z,37.22
2024-01-28T21:14:11.576Z,35.63
2024-01-28T21:17:13.787Z,34.97
2024-01-28T21:20:15.984Z,31.40
2024-01-28T21:23:22.804Z,31.80
2024-01-28T21:26:25.011Z,29.43
2024-01-28T21:29:32.961Z,30.95
2024-01-28T21:32:35.308Z,26.60
2024-01-28T21:35:37.577Z,28.00
2024-01-28T21:38:39.780Z,26.42
2024-01-28T21:41:42.039Z,25.08
2024-01-28T21:44:44.424Z,25.45
2024-01-28T21:47:46.584Z,24.57
2024-01-28T21:50:48.823Z,24.30
2024-01-28T21:53:51.054Z,22.48
2024-01-28T21:56:55.925Z,23.77
2024-01-28T21:59:58.082Z,22.05
2024-01-28T22:03:00.381Z,22.40
2024-01-28T22:06:02.911Z,22.13
2024-01-28T22:09:05.194Z,19.75
2024-01-28T22:12:07.950Z,22.50
2024-01-28T22:15:10.357Z,20.60
2024-01-28T22:18:12.545Z,19.17
2024-01-28T22:21:16.109Z,22.52
2024-01-28T22:24:18.725Z,19.70
2024-01-28T22:27:21.380Z,15.67
2024-01-28T22:30:24.935Z,18.02
2024-01-28T22:33:27.420Z,17.20
2024-01-28T22:36:29.767Z,20.05
2024-01-28T22:39:32.488Z,17.90
2024-01-28T22:42:34.732Z,17.75
2024-01-28T22:45:36.941Z,17.00
2024-01-28T22:48:39.284Z,15.10
2024-01-28T22:51:41.652Z,14.52
2024-01-28T22:54:43.974Z,15.98
2024-01-28T22:57:46.150Z,15.10
2024-01-28T23:00:48.460Z,18.38
2024-01-28T23:03:50.866Z,14.50
2024-01-28T23:06:53.267Z,17.38
2024-01-28T23:09:55.527Z,15.60
2024-01-28T23:12:58.314Z,15.50
2024-01-28T23:16:00.465Z,18.15
2024-01-28T23:19:02.888Z,18.03
2024-01-28T23:22:05.234Z,19.50
2024-01-28T23:25:07.470Z,15.70
2024-01-28T23:28:09.770Z,15.37
2024-01-28T23:31:12.005Z,15.30
2024-01-28T23:34:15.814Z,16.48
2024-01-28T23:37:18.534Z,16.17
2024-01-28T23:40:20.710Z,15.38
2024-01-28T23:43:22.814Z,18.75
2024-01-28T23:46:24.944Z,14.90
2024-01-28T23:49:27.218Z,12.67
2024-01-28T23:52:29.522Z,14.30
2024-01-28T23:55:31.685Z,16.52
2024-01-28T23:58:33.864Z,14.87
